createdAt,value
2019-02-18T00:00:49.742Z,68.93
2019-02-18T00:01:49.731Z,68.72
2019-02-18T00:02:49.715Z,68.93
2019-02-18T00:03:49.723Z,69.17
2019-02-18T00:04:49.775Z,69.68
2019-02-18T00:05:49.687Z,68.96
2019-02-18T00:06:49.675Z,68.96
2019-02-18T00:07:49.665Z,68.96
2019-02-18T00:08:49.653Z,68.96
2019-02-18T00:09:49.679Z,69.06
2019-02-18T00:10:49.666Z,69.06
2019-02-18T00:11:49.620Z,68.96
2019-02-18T00:12:49.606Z,68.96
2019-02-18T00:13:49.593Z,69.13
2019-02-18T00:14:49.589Z,68.54
2019-02-18T00:15:49.638Z,68.65
2019-02-18T00:16:49.560Z,68.96
2019-02-18T00:17:49.552Z,68.54
2019-02-18T00:18:49.554Z,69.06
2019-02-18T00:19:49.534Z,69.06
2019-02-18T00:20:49.523Z,68.54
2019-02-18T00:21:49.560Z,68.93
2019-02-18T00:22:49.537Z,68.85
2019-02-18T00:23:49.501Z,68.96
2019-02-18T00:24:49.516Z,69.06
2019-02-18T00:25:49.484Z,69.37
2019-02-18T00:26:49.494Z,69.82
2019-02-18T00:27:49.438Z,69.61
2019-02-18T00:28:49.432Z,69.61
2019-02-18T00:29:49.424Z,69.71
2019-02-18T00:30:49.416Z,69.92
2019-02-18T00:31:49.478Z,69.82
2019-02-18T00:32:49.401Z,69.92
2019-02-18T00:33:49.372Z,70.16
2019-02-18T00:34:49.364Z,69.82
2019-02-18T00:35:49.355Z,70.37
2019-02-18T00:36:49.357Z,70.81
2019-02-18T00:37:49.371Z,70.92
2019-02-18T00:38:49.326Z,71.22
2019-02-18T00:39:49.304Z,70.92
2019-02-18T00:40:49.301Z,70.78
2019-02-18T00:41:49.440Z,71.09
2019-02-18T00:42:49.320Z,71.12
2019-02-18T00:43:49.272Z,70.81
2019-02-18T00:44:49.254Z,71.02
2019-02-18T00:45:49.284Z,70.92
2019-02-18T00:46:49.233Z,71.12
2019-02-18T00:47:49.322Z,71.74
2019-02-18T00:48:49.233Z,72.08
2019-02-18T00:49:49.199Z,72.29
2019-02-18T00:50:49.189Z,72.39
2019-02-18T00:51:49.171Z,72.50
2019-02-18T00:52:49.166Z,72.50
2019-02-18T00:53:49.197Z,72.50
2019-02-18T00:54:49.166Z,72.29
2019-02-18T00:55:49.175Z,73.12
2019-02-18T00:56:49.132Z,73.05
2019-02-18T00:57:49.141Z,73.05
2019-02-18T00:58:49.156Z,72.94
2019-02-18T00:59:49.092Z,72.74
2019-02-18T01:00:49.079Z,73.15
2019-02-18T01:01:49.071Z,73.15
2019-02-18T01:02:49.053Z,72.94
2019-02-18T01:03:49.059Z,73.05
2019-02-18T01:04:49.090Z,72.74
2019-02-18T01:05:49.078Z,73.05
2019-02-18T01:06:49.026Z,73.46
2019-02-18T01:07:48.998Z,72.94
2019-02-18T01:08:48.995Z,73.36
2019-02-18T01:09:48.979Z,73.25
2019-02-18T01:10:49.004Z,73.54
2019-02-18T01:11:48.961Z,73.46
2019-02-18T01:12:48.966Z,73.15
2019-02-18T01:13:48.997Z,73.36
2019-02-18T01:14:48.928Z,73.25
2019-02-18T01:15:48.953Z,72.53
2019-02-18T01:16:48.919Z,73.22
2019-02-18T01:17:48.935Z,72.91
2019-02-18T01:18:48.881Z,72.81
2019-02-18T01:19:48.882Z,72.50
2019-02-18T01:20:48.856Z,73.22
2019-02-18T01:21:48.844Z,72.08
2019-02-18T01:22:48.873Z,72.50
2019-02-18T01:23:48.831Z,72.71
2019-02-18T01:24:48.818Z,72.50
2019-02-18T01:25:48.804Z,72.71
2019-02-18T01:26:48.836Z,72.81
2019-02-18T01:27:48.800Z,71.22
2019-02-18T01:28:48.842Z,71.43
2019-02-18T01:29:48.756Z,72.47
2019-02-18T01:30:48.747Z,72.08
2019-02-18T01:31:48.783Z,72.16
2019-02-18T01:32:48.735Z,71.57
2019-02-18T01:33:48.718Z,72.19
2019-02-18T01:34:48.744Z,72.50
2019-02-18T01:35:48.689Z,72.81
2019-02-18T01:36:48.680Z,72.91
2019-02-18T01:37:48.741Z,72.74
2019-02-18T01:38:48.661Z,73.05
2019-02-18T01:39:48.651Z,73.25
2019-02-18T01:40:48.658Z,72.94
2019-02-18T01:41:48.633Z,72.85
2019-02-18T01:42:48.624Z,72.53
2019-02-18T01:43:48.643Z,73.15
2019-02-18T01:44:48.592Z,73.57
2019-02-18T01:45:48.585Z,73.15
2019-02-18T01:46:48.589Z,73.77
2019-02-18T01:47:48.562Z,73.67
2019-02-18T01:48:48.599Z,73.71
2019-02-18T01:49:48.537Z,74.08
2019-02-18T01:50:48.549Z,73.36
2019-02-18T01:51:48.519Z,74.02
2019-02-18T01:52:48.513Z,73.81
2019-02-18T01:53:48.542Z,73.71
2019-02-18T01:54:48.536Z,73.57
2019-02-18T01:55:48.522Z,73.25
2019-02-18T01:56:48.462Z,73.36
2019-02-18T01:57:48.458Z,73.29
2019-02-18T01:58:48.437Z,72.74
2019-02-18T01:59:48.483Z,72.74
2019-02-18T02:00:48.416Z,73.25
2019-02-18T02:01:48.406Z,72.94
2019-02-18T02:02:48.434Z,72.74
2019-02-18T02:03:48.415Z,72.33
2019-02-18T02:04:48.380Z,72.43
2019-02-18T02:05:48.370Z,72.53
2019-02-18T02:06:48.401Z,73.12
2019-02-18T02:07:55.713Z,72.08
2019-02-18T02:08:49.351Z,71.88
2019-02-18T02:09:48.367Z,72.19
2019-02-18T02:10:48.346Z,71.57
2019-02-18T02:11:48.355Z,71.67
2019-02-18T02:12:48.293Z,72.12
2019-02-18T02:13:48.299Z,72.22
2019-02-18T02:14:48.312Z,72.64
2019-02-18T02:15:48.253Z,72.74
2019-02-18T02:16:48.247Z,72.53
2019-02-18T02:17:48.281Z,72.02
2019-02-18T02:18:48.252Z,72.85
2019-02-18T02:19:48.240Z,72.02
2019-02-18T02:20:48.242Z,73.25
2019-02-18T02:21:48.194Z,72.94
2019-02-18T02:22:48.231Z,72.53
2019-02-18T02:23:48.173Z,72.33
2019-02-18T02:24:48.158Z,72.22
2019-02-18T02:25:48.150Z,72.02
2019-02-18T02:26:48.144Z,72.53
2019-02-18T02:27:48.135Z,72.53
2019-02-18T02:28:48.161Z,72.53
2019-02-18T02:29:48.106Z,73.15
2019-02-18T02:30:48.092Z,72.12
2019-02-18T02:31:48.088Z,72.53
2019-02-18T02:32:48.134Z,72.33
2019-02-18T02:33:48.062Z,72.43
2019-02-18T02:34:48.051Z,72.43
2019-02-18T02:35:48.099Z,72.02
2019-02-18T02:36:48.041Z,71.81
2019-02-18T02:37:48.020Z,72.64
2019-02-18T02:38:48.028Z,72.12
2019-02-18T02:39:48.001Z,73.15
2019-02-18T02:40:47.982Z,72.22
2019-02-18T02:41:48.032Z,72.53
2019-02-18T02:42:47.970Z,72.33
2019-02-18T02:43:47.957Z,72.12
2019-02-18T02:44:47.958Z,72.33
2019-02-18T02:45:47.931Z,72.43
2019-02-18T02:46:47.929Z,73.08
2019-02-18T02:47:47.958Z,72.53
2019-02-18T02:48:47.952Z,72.88
2019-02-18T02:49:47.905Z,72.56
2019-02-18T02:50:47.881Z,72.77
2019-02-18T02:51:47.861Z,73.29
2019-02-18T02:52:47.860Z,72.77
2019-02-18T02:53:47.843Z,72.77
2019-02-18T02:54:47.873Z,73.25
2019-02-18T02:55:47.828Z,72.98
2019-02-18T02:56:47.812Z,72.56
2019-02-18T02:57:47.803Z,73.29
2019-02-18T02:58:47.810Z,73.19
2019-02-18T02:59:47.837Z,73.08
2019-02-18T03:00:47.770Z,72.22
2019-02-18T03:01:47.762Z,73.15
2019-02-18T03:02:47.750Z,72.98
2019-02-18T03:03:47.770Z,73.39
2019-02-18T03:04:47.774Z,72.64
2019-02-18T03:05:47.715Z,72.53
2019-02-18T03:06:47.705Z,72.74
2019-02-18T03:07:47.696Z,72.33
2019-02-18T03:08:47.687Z,72.02
2019-02-18T03:09:47.734Z,72.53
2019-02-18T03:10:47.671Z,71.91
2019-02-18T03:11:47.659Z,72.53
2019-02-18T03:12:47.644Z,72.53
2019-02-18T03:13:47.631Z,72.12
2019-02-18T03:14:47.614Z,72.02
2019-02-18T03:15:47.642Z,71.91
2019-02-18T03:16:47.596Z,71.60
2019-02-18T03:17:47.610Z,71.47
2019-02-18T03:18:47.581Z,71.60
2019-02-18T03:19:47.559Z,71.50
2019-02-18T03:20:47.585Z,71.50
2019-02-18T03:21:47.638Z,71.50
2019-02-18T03:22:47.544Z,71.91
2019-02-18T03:23:47.623Z,71.81
2019-02-18T03:24:47.521Z,71.19
2019-02-18T03:25:47.496Z,71.81
2019-02-18T03:26:47.508Z,72.12
2019-02-18T03:27:47.475Z,71.50
2019-02-18T03:28:47.501Z,71.84
2019-02-18T03:29:47.453Z,71.94
2019-02-18T03:30:47.518Z,72.56
2019-02-18T03:31:47.438Z,72.25
2019-02-18T03:32:47.431Z,72.46
2019-02-18T03:33:47.411Z,73.08
2019-02-18T03:34:47.462Z,72.91
2019-02-18T03:35:47.422Z,73.43
2019-02-18T03:36:47.373Z,72.91
2019-02-18T03:37:47.368Z,73.01
2019-02-18T03:38:47.390Z,73.43
2019-02-18T03:39:47.349Z,73.22
2019-02-18T03:40:47.338Z,73.57
2019-02-18T03:41:47.327Z,73.94
2019-02-18T03:42:47.312Z,73.63
2019-02-18T03:43:47.335Z,73.32
2019-02-18T03:44:47.286Z,73.11
2019-02-18T03:45:47.304Z,73.32
2019-02-18T03:46:47.273Z,73.32
2019-02-18T03:47:47.260Z,73.43
2019-02-18T03:48:47.289Z,73.60
2019-02-18T03:49:47.235Z,72.67
2019-02-18T03:50:47.254Z,73.29
2019-02-18T03:51:47.215Z,73.08
2019-02-18T03:52:47.203Z,73.08
2019-02-18T03:53:47.197Z,72.15
2019-02-18T03:54:47.225Z,72.77
2019-02-18T03:55:47.233Z,72.67
2019-02-18T03:56:47.157Z,73.43
2019-02-18T03:57:47.180Z,73.43
2019-02-18T03:58:47.138Z,73.53
2019-02-18T03:59:47.129Z,72.98
2019-02-18T04:00:47.152Z,73.19
2019-02-18T04:01:47.108Z,72.81
2019-02-18T04:02:47.129Z,73.29
2019-02-18T04:03:47.126Z,73.01
2019-02-18T04:04:47.108Z,72.60
2019-02-18T04:05:47.062Z,73.39
2019-02-18T04:06:47.095Z,73.71
2019-02-18T04:07:47.039Z,73.36
2019-02-18T04:08:47.050Z,73.57
2019-02-18T04:09:47.015Z,74.19
2019-02-18T04:10:47.017Z,73.88
2019-02-18T04:11:47.000Z,73.80
2019-02-18T04:12:47.032Z,74.29
2019-02-18T04:13:46.972Z,74.29
2019-02-18T04:14:46.960Z,74.19
2019-02-18T04:15:46.991Z,74.29
2019-02-18T04:16:46.980Z,74.50
2019-02-18T04:17:46.927Z,73.98
2019-02-18T04:18:46.982Z,73.98
2019-02-18T04:19:46.911Z,74.19
2019-02-18T04:20:46.892Z,73.88
2019-02-18T04:21:46.885Z,73.88
2019-02-18T04:22:46.874Z,73.88
2019-02-18T04:23:46.896Z,73.57
2019-02-18T04:24:46.847Z,73.88
2019-02-18T04:25:46.854Z,74.08
2019-02-18T04:26:46.846Z,74.19
2019-02-18T04:27:46.819Z,73.98
2019-02-18T04:28:46.863Z,73.57
2019-02-18T04:29:46.802Z,74.01
2019-02-18T04:30:46.785Z,74.22
2019-02-18T04:31:46.778Z,74.53
2019-02-18T04:32:46.765Z,74.88
2019-02-18T04:33:46.807Z,74.84
2019-02-18T04:34:46.807Z,74.74
2019-02-18T04:35:46.737Z,75.09
2019-02-18T04:36:46.720Z,74.88
2019-02-18T04:37:46.714Z,74.84
2019-02-18T04:38:53.872Z,74.43
2019-02-18T04:39:47.743Z,74.32
2019-02-18T04:40:46.717Z,74.36
2019-02-18T04:41:46.667Z,74.67
2019-02-18T04:42:46.659Z,74.77
2019-02-18T04:43:46.647Z,74.98
2019-02-18T04:44:46.639Z,74.91
2019-02-18T04:45:46.656Z,75.09
2019-02-18T04:46:46.629Z,75.12
2019-02-18T04:47:46.602Z,75.19
2019-02-18T04:48:46.589Z,75.09
2019-02-18T04:49:46.613Z,74.32
2019-02-18T04:50:46.564Z,73.32
2019-02-18T04:51:46.554Z,73.49
2019-02-18T04:52:46.582Z,73.60
2019-02-18T04:53:46.600Z,73.18
2019-02-18T04:54:46.517Z,73.80
2019-02-18T04:55:46.550Z,74.11
2019-02-18T04:56:46.517Z,74.05
2019-02-18T04:57:46.527Z,74.67
2019-02-18T04:58:46.483Z,74.67
2019-02-18T04:59:46.474Z,75.54
2019-02-18T05:00:46.458Z,75.02
2019-02-18T05:01:46.490Z,74.71
2019-02-18T05:02:46.473Z,75.12
2019-02-18T05:03:46.435Z,74.88
2019-02-18T05:04:46.422Z,74.67
2019-02-18T05:05:46.407Z,74.36
2019-02-18T05:06:46.428Z,74.36
2019-02-18T05:07:46.408Z,73.22
2019-02-18T05:08:46.404Z,74.60
2019-02-18T05:09:46.354Z,74.81
2019-02-18T05:10:46.352Z,74.29
2019-02-18T05:11:46.369Z,75.02
2019-02-18T05:12:46.324Z,75.23
2019-02-18T05:13:46.360Z,75.36
2019-02-18T05:14:46.298Z,75.67
2019-02-18T05:15:46.289Z,75.67
2019-02-18T05:16:46.285Z,75.57
2019-02-18T05:17:46.270Z,76.29
2019-02-18T05:18:46.280Z,76.23
2019-02-18T05:19:46.283Z,76.33
2019-02-18T05:20:46.237Z,76.57
2019-02-18T05:21:46.226Z,76.75
2019-02-18T05:22:46.244Z,76.78
2019-02-18T05:23:46.257Z,76.64
2019-02-18T05:24:46.264Z,76.40
2019-02-18T05:25:46.245Z,76.43
2019-02-18T05:26:46.174Z,76.19
2019-02-18T05:27:46.163Z,76.61
2019-02-18T05:28:46.165Z,75.46
2019-02-18T05:29:46.137Z,75.15
2019-02-18T05:30:46.159Z,75.26
2019-02-18T05:31:46.120Z,75.26
2019-02-18T05:32:46.113Z,75.15
2019-02-18T05:33:46.164Z,75.05
2019-02-18T05:34:46.091Z,74.74
2019-02-18T05:35:46.078Z,74.84
2019-02-18T05:36:46.072Z,74.74
2019-02-18T05:37:46.046Z,75.05
2019-02-18T05:38:46.052Z,74.91
2019-02-18T05:39:46.080Z,74.29
2019-02-18T05:40:46.019Z,74.74
2019-02-18T05:41:46.030Z,74.63
2019-02-18T05:42:46.020Z,74.43
2019-02-18T05:43:45.985Z,74.53
2019-02-18T05:44:45.995Z,74.63
2019-02-18T05:45:46.023Z,74.32
2019-02-18T05:46:45.952Z,75.15
2019-02-18T05:47:45.943Z,74.95
2019-02-18T05:48:45.934Z,74.43
2019-02-18T05:49:45.916Z,74.22
2019-02-18T05:50:45.913Z,74.40
2019-02-18T05:51:45.938Z,74.22
2019-02-18T05:52:45.891Z,73.88
2019-02-18T05:53:45.900Z,74.01
2019-02-18T05:54:45.887Z,74.53
2019-02-18T05:55:45.859Z,74.32
2019-02-18T05:56:45.883Z,74.53
2019-02-18T05:57:45.835Z,74.91
2019-02-18T05:58:45.842Z,74.40
2019-02-18T05:59:45.822Z,74.32
2019-02-18T06:00:45.797Z,73.77
2019-02-18T06:01:45.800Z,73.98
2019-02-18T06:02:45.822Z,73.36
2019-02-18T06:03:45.774Z,74.08
2019-02-18T06:04:45.754Z,73.77
2019-02-18T06:05:45.781Z,73.77
2019-02-18T06:06:45.741Z,74.71
2019-02-18T06:07:45.758Z,73.88
2019-02-18T06:08:45.714Z,73.67
2019-02-18T06:09:45.703Z,74.01
2019-02-18T06:10:45.693Z,73.46
2019-02-18T06:11:45.730Z,74.40
2019-02-18T06:12:45.723Z,73.25
2019-02-18T06:13:45.661Z,73.88
2019-02-18T06:14:45.650Z,74.40
2019-02-18T06:15:45.667Z,73.88
2019-02-18T06:16:45.654Z,74.40
2019-02-18T06:17:45.653Z,73.98
2019-02-18T06:18:45.612Z,73.77
2019-02-18T06:19:45.633Z,74.40
2019-02-18T06:20:45.586Z,74.29
2019-02-18T06:21:45.612Z,74.50
2019-02-18T06:22:45.567Z,73.77
2019-02-18T06:23:45.553Z,74.50
2019-02-18T06:24:45.550Z,73.98
2019-02-18T06:25:45.570Z,74.60
2019-02-18T06:26:45.526Z,73.46
2019-02-18T06:27:45.543Z,74.08
2019-02-18T06:28:45.517Z,73.67
2019-02-18T06:29:45.490Z,74.60
2019-02-18T06:30:45.509Z,74.40
2019-02-18T06:31:45.480Z,73.67
2019-02-18T06:32:45.491Z,74.29
2019-02-18T06:33:45.543Z,74.08
2019-02-18T06:34:45.450Z,74.08
2019-02-18T06:35:45.425Z,73.84
2019-02-18T06:36:45.549Z,73.94
2019-02-18T06:37:45.445Z,73.84
2019-02-18T06:38:45.393Z,74.08
2019-02-18T06:39:45.420Z,74.05
2019-02-18T06:40:45.378Z,74.36
2019-02-18T06:41:45.436Z,73.94
2019-02-18T06:42:45.425Z,74.05
2019-02-18T06:43:45.335Z,73.94
2019-02-18T06:44:45.330Z,74.36
2019-02-18T06:45:45.343Z,73.63
2019-02-18T06:46:45.312Z,73.36
2019-02-18T06:47:45.364Z,74.26
2019-02-18T06:48:45.275Z,73.63
2019-02-18T06:49:45.332Z,74.05
2019-02-18T06:50:45.257Z,74.05
2019-02-18T06:51:45.247Z,74.05
2019-02-18T06:52:45.236Z,72.80
2019-02-18T06:53:45.268Z,73.84
2019-02-18T06:54:45.213Z,73.22
2019-02-18T06:55:45.206Z,73.32
2019-02-18T06:56:45.205Z,73.53
2019-02-18T06:57:45.177Z,73.32
2019-02-18T06:58:45.173Z,73.11
2019-02-18T06:59:45.257Z,73.08
2019-02-18T07:00:45.143Z,73.32
2019-02-18T07:01:45.145Z,73.01
2019-02-18T07:02:45.128Z,73.05
2019-02-18T07:03:45.116Z,73.67
2019-02-18T07:04:45.163Z,74.22
2019-02-18T07:05:45.108Z,74.01
2019-02-18T07:06:45.083Z,74.11
2019-02-18T07:07:45.084Z,74.53
2019-02-18T07:08:45.062Z,74.74
2019-02-18T07:09:51.347Z,75.15
2019-02-18T07:10:46.077Z,75.15
2019-02-18T07:11:45.031Z,74.84
2019-02-18T07:12:45.017Z,74.71
2019-02-18T07:13:45.006Z,74.91
2019-02-18T07:14:44.995Z,74.91
2019-02-18T07:15:45.023Z,74.50
2019-02-18T07:16:44.976Z,74.40
2019-02-18T07:17:44.964Z,74.36
2019-02-18T07:18:44.947Z,74.05
2019-02-18T07:19:44.944Z,74.26
2019-02-18T07:20:44.964Z,74.36
2019-02-18T07:21:44.914Z,74.91
2019-02-18T07:22:44.910Z,74.50
2019-02-18T07:23:44.890Z,74.19
2019-02-18T07:24:44.879Z,74.36
2019-02-18T07:25:44.870Z,74.57
2019-02-18T07:26:44.899Z,74.50
2019-02-18T07:27:44.844Z,74.15
2019-02-18T07:28:44.836Z,73.43
2019-02-18T07:29:44.828Z,73.94
2019-02-18T07:30:44.818Z,73.63
2019-02-18T07:31:44.885Z,73.94
2019-02-18T07:32:44.808Z,73.94
2019-02-18T07:33:44.802Z,73.94
2019-02-18T07:34:44.771Z,73.80
2019-02-18T07:35:44.826Z,73.84
2019-02-18T07:36:44.755Z,73.28
2019-02-18T07:37:44.798Z,73.84
2019-02-18T07:38:44.745Z,72.77
2019-02-18T07:39:44.712Z,73.11
2019-02-18T07:40:44.705Z,72.88
2019-02-18T07:41:44.732Z,73.22
2019-02-18T07:42:44.689Z,73.28
2019-02-18T07:43:44.740Z,72.28
2019-02-18T07:44:44.656Z,73.22
2019-02-18T07:45:44.648Z,73.39
2019-02-18T07:46:44.646Z,73.49
2019-02-18T07:47:44.634Z,73.80
2019-02-18T07:48:44.659Z,72.77
2019-02-18T07:49:44.605Z,72.46
2019-02-18T07:50:44.608Z,72.15
2019-02-18T07:51:44.585Z,73.32
2019-02-18T07:52:44.567Z,72.88
2019-02-18T07:53:44.603Z,73.28
2019-02-18T07:54:44.552Z,72.80
2019-02-18T07:55:44.538Z,73.80
2019-02-18T07:56:44.528Z,73.43
2019-02-18T07:57:44.549Z,74.01
2019-02-18T07:58:44.516Z,73.49
2019-02-18T07:59:44.569Z,73.08
2019-02-18T08:00:44.503Z,72.77
2019-02-18T08:01:44.516Z,73.08
2019-02-18T08:02:44.467Z,73.70
2019-02-18T08:03:44.500Z,73.28
2019-02-18T08:04:44.436Z,72.84
2019-02-18T08:05:44.457Z,73.25
2019-02-18T08:06:44.417Z,72.94
2019-02-18T08:07:44.406Z,72.53
2019-02-18T08:08:44.461Z,72.42
2019-02-18T08:09:44.383Z,72.29
2019-02-18T08:10:44.374Z,73.32
2019-02-18T08:11:44.381Z,72.39
2019-02-18T08:12:44.436Z,72.60
2019-02-18T08:13:44.338Z,72.36
2019-02-18T08:14:44.359Z,72.25
2019-02-18T08:15:44.329Z,71.22
2019-02-18T08:16:44.319Z,71.01
2019-02-18T08:17:44.298Z,71.53
2019-02-18T08:18:44.285Z,70.87
2019-02-18T08:19:44.371Z,70.57
2019-02-18T08:20:44.262Z,70.57
2019-02-18T08:21:44.258Z,70.77
2019-02-18T08:22:44.258Z,70.15
2019-02-18T08:23:44.252Z,70.36
2019-02-18T08:24:44.309Z,70.36
2019-02-18T08:25:44.216Z,70.77
2019-02-18T08:26:44.313Z,70.47
2019-02-18T08:27:44.192Z,69.95
2019-02-18T08:28:44.205Z,70.26
2019-02-18T08:29:44.215Z,70.05
2019-02-18T08:30:44.150Z,70.15
2019-02-18T08:31:44.164Z,69.84
2019-02-18T08:32:44.135Z,69.84
2019-02-18T08:33:44.126Z,69.60
2019-02-18T08:34:44.118Z,70.01
2019-02-18T08:35:44.146Z,69.29
2019-02-18T08:36:44.087Z,68.98
2019-02-18T08:37:44.089Z,68.74
2019-02-18T08:38:44.066Z,68.74
2019-02-18T08:39:44.059Z,68.23
2019-02-18T08:40:44.077Z,67.82
2019-02-18T08:41:44.037Z,68.33
2019-02-18T08:42:44.034Z,67.50
2019-02-18T08:43:44.013Z,67.19
2019-02-18T08:44:44.036Z,67.61
2019-02-18T08:45:44.030Z,67.61
2019-02-18T08:46:44.017Z,67.09
2019-02-18T08:47:43.986Z,67.16
2019-02-18T08:48:43.969Z,67.16
2019-02-18T08:49:43.963Z,67.13
2019-02-18T08:50:43.974Z,66.93
2019-02-18T08:51:43.985Z,66.72
2019-02-18T08:52:43.949Z,65.69
2019-02-18T08:53:43.919Z,65.17
2019-02-18T08:54:43.895Z,65.17
2019-02-18T08:55:43.877Z,64.55
2019-02-18T08:56:43.873Z,64.76
2019-02-18T08:57:43.905Z,64.73
2019-02-18T08:58:43.844Z,63.90
2019-02-18T08:59:43.839Z,64.21
2019-02-18T09:00:43.834Z,63.90
2019-02-18T09:01:43.815Z,63.90
2019-02-18T09:02:43.847Z,63.79
2019-02-18T09:03:43.795Z,63.87
2019-02-18T09:04:43.777Z,63.46
2019-02-18T09:05:43.771Z,63.97
2019-02-18T09:06:43.792Z,63.77
2019-02-18T09:07:43.779Z,63.12
2019-02-18T09:08:43.743Z,63.25
2019-02-18T09:09:43.728Z,63.22
2019-02-18T09:10:43.769Z,62.60
2019-02-18T09:11:43.708Z,61.88
2019-02-18T09:12:43.693Z,62.29
2019-02-18T09:13:43.737Z,61.44
2019-02-18T09:14:43.689Z,61.78
2019-02-18T09:15:43.659Z,62.08
2019-02-18T09:16:43.649Z,62.16
2019-02-18T09:17:43.662Z,61.03
2019-02-18T09:18:43.685Z,61.03
2019-02-18T09:19:43.616Z,60.89
2019-02-18T09:20:43.673Z,60.49
2019-02-18T09:21:43.592Z,60.28
2019-02-18T09:22:43.579Z,60.69
2019-02-18T09:23:43.577Z,60.46
2019-02-18T09:24:43.556Z,60.46
2019-02-18T09:25:43.703Z,60.25
2019-02-18T09:26:43.570Z,60.35
2019-02-18T09:27:43.523Z,60.66
2019-02-18T09:28:43.514Z,60.46
2019-02-18T09:29:43.557Z,60.94
2019-02-18T09:30:43.528Z,60.94
2019-02-18T09:31:43.507Z,60.87
2019-02-18T09:32:43.492Z,61.05
2019-02-18T09:33:43.488Z,60.84
2019-02-18T09:34:43.456Z,60.84
2019-02-18T09:35:43.489Z,61.05
2019-02-18T09:36:43.426Z,60.63
2019-02-18T09:37:43.430Z,60.74
2019-02-18T09:38:43.412Z,60.43
2019-02-18T09:39:43.394Z,59.81
2019-02-18T09:40:46.184Z,59.99
2019-02-18T09:41:44.906Z,60.19
2019-02-18T09:42:43.362Z,59.89
2019-02-18T09:43:43.390Z,59.68
2019-02-18T09:44:43.348Z,58.96
2019-02-18T09:45:43.334Z,59.06
2019-02-18T09:46:43.323Z,59.03
2019-02-18T09:47:43.356Z,59.17
2019-02-18T09:48:43.306Z,59.03
2019-02-18T09:49:43.293Z,58.73
2019-02-18T09:50:43.276Z,58.50
2019-02-18T09:51:43.279Z,59.24
2019-02-18T09:52:43.255Z,59.14
2019-02-18T09:53:43.274Z,57.59
2019-02-18T09:54:43.247Z,57.90
2019-02-18T09:55:43.220Z,57.46
2019-02-18T09:56:43.211Z,57.46
2019-02-18T09:57:43.216Z,56.95
2019-02-18T09:58:43.218Z,56.23
2019-02-18T09:59:43.191Z,58.16
2019-02-18T10:00:43.231Z,57.64
2019-02-18T10:01:43.401Z,57.54
2019-02-18T10:02:43.148Z,57.75
2019-02-18T10:03:43.166Z,57.95
2019-02-18T10:04:43.123Z,57.54
2019-02-18T10:05:43.141Z,57.75
2019-02-18T10:06:43.109Z,57.54
2019-02-18T10:07:43.101Z,57.54
2019-02-18T10:08:43.134Z,57.31
2019-02-18T10:09:43.079Z,56.38
2019-02-18T10:10:43.060Z,57.72
2019-02-18T10:11:43.048Z,56.18
2019-02-18T10:12:43.038Z,56.18
2019-02-18T10:13:43.064Z,56.56
2019-02-18T10:14:43.078Z,56.36
2019-02-18T10:15:43.000Z,55.85
2019-02-18T10:16:43.023Z,55.41
2019-02-18T10:17:42.999Z,55.72
2019-02-18T10:18:42.998Z,55.62
2019-02-18T10:19:43.247Z,55.00
2019-02-18T10:20:42.957Z,54.90
2019-02-18T10:21:42.928Z,56.02
2019-02-18T10:22:42.933Z,54.05
2019-02-18T10:23:42.939Z,54.25
2019-02-18T10:24:50.761Z,54.46
2019-02-18T10:25:43.936Z,56.10
2019-02-18T10:26:42.888Z,55.38
2019-02-18T10:27:42.895Z,55.69
2019-02-18T10:28:42.854Z,55.28
2019-02-18T10:29:42.879Z,54.36
2019-02-18T10:30:42.878Z,54.46
2019-02-18T10:31:42.822Z,54.46
2019-02-18T10:32:42.819Z,54.33
2019-02-18T10:33:42.797Z,54.97
2019-02-18T10:34:42.801Z,53.95
2019-02-18T10:35:42.820Z,53.95
2019-02-18T10:36:42.769Z,54.44
2019-02-18T10:37:42.772Z,54.44
2019-02-18T10:38:42.757Z,53.61
2019-02-18T10:39:42.739Z,54.02
2019-02-18T10:40:42.766Z,54.44
2019-02-18T10:41:42.722Z,54.02
2019-02-18T10:42:42.728Z,54.44
2019-02-18T10:43:42.692Z,53.28
2019-02-18T10:44:42.697Z,53.41
2019-02-18T10:45:42.674Z,53.80
2019-02-18T10:46:42.701Z,53.39
2019-02-18T10:47:42.684Z,53.18
2019-02-18T10:48:42.726Z,53.39
2019-02-18T10:49:42.619Z,53.08
2019-02-18T10:50:42.605Z,52.87
2019-02-18T10:51:42.652Z,53.16
2019-02-18T10:52:42.588Z,52.23
2019-02-18T10:53:42.589Z,52.34
2019-02-18T10:54:42.563Z,52.85
2019-02-18T10:55:42.577Z,51.62
2019-02-18T10:56:42.561Z,50.80
2019-02-18T10:57:42.563Z,50.16
2019-02-18T10:58:42.631Z,49.98
2019-02-18T10:59:42.512Z,49.96
2019-02-18T11:00:42.502Z,49.11
2019-02-18T11:01:42.507Z,48.91
2019-02-18T11:02:42.517Z,48.19
2019-02-18T11:03:42.467Z,48.27
2019-02-18T11:04:42.459Z,48.17
2019-02-18T11:05:42.439Z,48.46
2019-02-18T11:06:42.427Z,48.66
2019-02-18T11:07:42.470Z,48.48
2019-02-18T11:08:42.414Z,47.94
2019-02-18T11:09:42.392Z,47.94
2019-02-18T11:10:42.385Z,46.82
2019-02-18T11:11:42.379Z,47.52
2019-02-18T11:12:42.371Z,47.11
2019-02-18T11:13:42.393Z,47.82
2019-02-18T11:14:42.384Z,47.82
2019-02-18T11:15:42.330Z,47.72
2019-02-18T11:16:42.335Z,48.64
2019-02-18T11:17:42.318Z,48.74
2019-02-18T11:18:42.357Z,47.92
2019-02-18T11:19:42.283Z,48.64
2019-02-18T11:20:42.313Z,48.64
2019-02-18T11:21:42.261Z,47.92
2019-02-18T11:22:42.254Z,49.15
2019-02-18T11:23:42.295Z,47.92
2019-02-18T11:24:42.241Z,48.13
2019-02-18T11:25:42.219Z,48.97
2019-02-18T11:26:42.219Z,48.05
2019-02-18T11:27:42.199Z,47.03
2019-02-18T11:28:42.216Z,47.23
2019-02-18T11:29:42.213Z,48.35
2019-02-18T11:30:42.177Z,48.13
2019-02-18T11:31:42.161Z,47.72
2019-02-18T11:32:42.150Z,47.82
2019-02-18T11:33:42.174Z,47.61
2019-02-18T11:34:42.121Z,47.20
2019-02-18T11:35:42.113Z,46.37
2019-02-18T11:36:42.145Z,46.78
2019-02-18T11:37:42.100Z,47.90
2019-02-18T11:38:42.108Z,47.69
2019-02-18T11:39:42.099Z,46.67
2019-02-18T11:40:42.061Z,47.19
2019-02-18T11:41:42.155Z,47.19
2019-02-18T11:42:42.037Z,48.51
2019-02-18T11:43:42.025Z,46.88
2019-02-18T11:44:42.018Z,46.78
2019-02-18T11:45:42.040Z,47.47
2019-02-18T11:46:42.065Z,48.31
2019-02-18T11:47:41.992Z,47.69
2019-02-18T11:48:41.972Z,48.08
2019-02-18T11:49:41.992Z,47.98
2019-02-18T11:50:42.042Z,47.57
2019-02-18T11:51:41.952Z,47.78
2019-02-18T11:52:42.022Z,47.27
2019-02-18T11:53:41.921Z,47.08
2019-02-18T11:54:41.911Z,47.16
2019-02-18T11:55:41.909Z,47.19
2019-02-18T11:56:41.889Z,47.78
2019-02-18T11:57:41.886Z,47.37
2019-02-18T11:58:41.902Z,46.55
2019-02-18T11:59:41.850Z,46.75
2019-02-18T12:00:41.907Z,46.12
2019-02-18T12:01:41.861Z,46.51
2019-02-18T12:02:41.826Z,46.20
2019-02-18T12:03:41.941Z,47.24
2019-02-18T12:04:41.880Z,47.02
2019-02-18T12:05:41.814Z,45.92
2019-02-18T12:06:41.844Z,47.04
2019-02-18T12:07:41.760Z,46.71
2019-02-18T12:08:41.815Z,45.28
2019-02-18T12:09:41.741Z,45.89
2019-02-18T12:10:41.771Z,46.20
2019-02-18T12:11:41.731Z,46.10
2019-02-18T12:12:41.753Z,46.20
2019-02-18T12:13:41.696Z,46.10
2019-02-18T12:14:41.744Z,46.10
2019-02-18T12:15:41.667Z,45.77
2019-02-18T12:16:41.704Z,45.69
2019-02-18T12:17:41.675Z,44.55
2019-02-18T12:18:41.658Z,43.73
2019-02-18T12:19:41.679Z,43.91
2019-02-18T12:20:41.614Z,43.81
2019-02-18T12:21:41.605Z,43.91
2019-02-18T12:22:41.613Z,44.51
2019-02-18T12:23:41.581Z,42.90
2019-02-18T12:24:41.570Z,42.39
2019-02-18T12:25:41.607Z,42.47
2019-02-18T12:26:41.547Z,42.27
2019-02-18T12:27:41.533Z,42.98
2019-02-18T12:28:41.563Z,42.47
2019-02-18T12:29:41.544Z,42.25
2019-02-18T12:30:41.552Z,42.14
2019-02-18T12:31:41.498Z,41.94
2019-02-18T12:32:41.486Z,41.94
2019-02-18T12:33:41.464Z,42.25
2019-02-18T12:34:41.457Z,42.25
2019-02-18T12:35:41.468Z,42.43
2019-02-18T12:36:41.734Z,41.82
2019-02-18T12:37:41.465Z,41.61
2019-02-18T12:38:41.407Z,42.22
2019-02-18T12:39:41.476Z,41.31
2019-02-18T12:40:41.411Z,40.50
2019-02-18T12:41:48.347Z,41.00
2019-02-18T12:42:42.799Z,41.72
2019-02-18T12:43:41.377Z,42.43
2019-02-18T12:44:41.362Z,40.60
2019-02-18T12:45:41.377Z,40.60
2019-02-18T12:46:41.373Z,40.58
2019-02-18T12:47:41.315Z,41.09
2019-02-18T12:48:41.332Z,40.48
2019-02-18T12:49:41.289Z,42.10
2019-02-18T12:50:41.329Z,41.92
2019-02-18T12:51:41.276Z,43.04
2019-02-18T12:52:41.305Z,42.43